createdAt,value
2019-06-02T00:00:13.684Z,20.30
2019-06-02T00:02:42.901Z,20.30
2019-06-02T00:05:12.268Z,20.30
2019-06-02T00:07:41.472Z,20.20
2019-06-02T00:10:11.057Z,20.20
2019-06-02T00:12:40.260Z,20.10
2019-06-02T00:15:10.624Z,19.90
2019-06-02T00:17:39.835Z,19.80
2019-06-02T00:20:10.005Z,19.70
2019-06-02T00:22:42.270Z,19.70
2019-06-02T00:25:11.023Z,19.60
2019-06-02T00:27:40.228Z,19.60
2019-06-02T00:30:10.098Z,19.60
2019-06-02T00:32:39.315Z,19.60
2019-06-02T00:35:11.888Z,19.60
2019-06-02T00:37:41.087Z,19.60
2019-06-02T00:40:10.456Z,19.50
2019-06-02T00:42:39.673Z,19.50
2019-06-02T00:45:09.065Z,19.50
2019-06-02T00:47:38.296Z,19.40
2019-06-02T00:50:08.632Z,19.30
2019-06-02T00:52:38.050Z,19.30
2019-06-02T00:55:07.974Z,19.20
2019-06-02T00:57:38.309Z,19.20
2019-06-02T01:00:08.900Z,19.20
2019-06-02T01:02:38.600Z,19.20
2019-06-02T01:05:08.311Z,19.20
2019-06-02T01:07:38.643Z,19.20
2019-06-02T01:10:09.593Z,19.20
2019-06-02T01:12:39.101Z,19.20
2019-06-02T01:15:10.938Z,19.20
2019-06-02T01:17:40.534Z,19.20
2019-06-02T01:20:10.462Z,19.20
2019-06-02T01:22:39.783Z,19.10
2019-06-02T01:25:10.024Z,19.10
2019-06-02T01:27:39.885Z,19.10
2019-06-02T01:30:10.227Z,19.10
2019-06-02T01:32:39.916Z,19.10
2019-06-02T01:35:10.563Z,19.10
2019-06-02T01:37:40.358Z,19.00
2019-06-02T01:40:09.838Z,19.00
2019-06-02T01:42:39.047Z,19.00
2019-06-02T01:45:25.526Z,19.00
2019-06-02T01:47:40.755Z,19.00
2019-06-02T01:50:10.866Z,19.00
2019-06-02T01:52:41.326Z,19.00
2019-06-02T01:55:10.956Z,19.00
2019-06-02T01:57:41.645Z,19.00
2019-06-02T02:00:12.097Z,19.00
2019-06-02T02:02:42.228Z,19.00
2019-06-02T02:05:12.544Z,19.00
2019-06-02T02:07:44.294Z,19.00
2019-06-02T02:10:13.218Z,18.90
2019-06-02T02:12:42.467Z,18.90
2019-06-02T02:15:12.287Z,18.80
2019-06-02T02:17:42.845Z,18.80
2019-06-02T02:20:15.267Z,18.70
2019-06-02T02:22:44.790Z,18.60
2019-06-02T02:25:14.186Z,18.50
2019-06-02T02:27:43.399Z,18.40
2019-06-02T02:30:13.011Z,18.30
2019-06-02T02:32:45.022Z,18.30
2019-06-02T02:35:13.519Z,18.20
2019-06-02T02:37:44.492Z,18.20
2019-06-02T02:40:13.990Z,18.10
2019-06-02T02:42:45.702Z,18.10
2019-06-02T02:45:14.384Z,18.10
2019-06-02T02:47:45.909Z,18.00
2019-06-02T02:50:14.775Z,18.00
2019-06-02T02:52:45.228Z,18.00
2019-06-02T02:55:16.344Z,18.00
2019-06-02T02:57:47.710Z,18.00
2019-06-02T03:00:19.669Z,18.00
2019-06-02T03:02:48.870Z,18.00
2019-06-02T03:05:18.091Z,17.90
2019-06-02T03:07:47.311Z,17.90
2019-06-02T03:10:16.765Z,17.90
2019-06-02T03:12:47.896Z,17.80
2019-06-02T03:15:16.950Z,17.80
2019-06-02T03:17:48.376Z,17.80
2019-06-02T03:20:17.074Z,17.70
2019-06-02T03:22:48.969Z,17.70
2019-06-02T03:25:17.255Z,17.60
2019-06-02T03:27:48.450Z,17.60
2019-06-02T03:30:19.188Z,17.60
2019-06-02T03:32:59.825Z,17.60
2019-06-02T03:35:19.755Z,17.60
2019-06-02T03:37:49.343Z,17.60
2019-06-02T03:40:18.973Z,17.60
2019-06-02T03:42:49.585Z,17.60
2019-06-02T03:45:19.185Z,17.50
2019-06-02T03:47:50.239Z,17.60
2019-06-02T03:50:19.520Z,17.60
2019-06-02T03:52:51.319Z,17.60
2019-06-02T03:55:19.655Z,17.60
2019-06-02T03:57:49.559Z,17.60
2019-06-02T04:00:20.280Z,17.60
2019-06-02T04:02:51.213Z,17.60
2019-06-02T04:05:20.398Z,17.60
2019-06-02T04:07:50.660Z,17.70
2019-06-02T04:10:20.273Z,17.70
2019-06-02T04:12:51.041Z,17.70
2019-06-02T04:15:20.549Z,17.80
2019-06-02T04:17:51.292Z,17.80
2019-06-02T04:20:21.112Z,17.80
2019-06-02T04:22:51.904Z,17.80
2019-06-02T04:25:21.754Z,17.80
2019-06-02T04:27:51.478Z,17.90
2019-06-02T04:30:20.976Z,17.90
2019-06-02T04:32:52.141Z,17.90
2019-06-02T04:35:21.206Z,18.00
2019-06-02T04:37:52.925Z,18.00
2019-06-02T04:40:21.727Z,18.10
2019-06-02T04:42:53.512Z,18.10
2019-06-02T04:45:21.848Z,18.20
2019-06-02T04:47:52.906Z,18.20
2019-06-02T04:50:22.383Z,18.20
2019-06-02T04:52:53.160Z,18.20
2019-06-02T04:55:22.570Z,18.20
2019-06-02T04:57:53.650Z,18.30
2019-06-02T05:00:23.083Z,18.30
2019-06-02T05:02:53.575Z,18.40
2019-06-02T05:05:23.098Z,18.50
2019-06-02T05:07:53.491Z,18.50
2019-06-02T05:10:23.023Z,18.60
2019-06-02T05:12:52.706Z,18.70
2019-06-02T05:15:22.074Z,18.90
2019-06-02T05:18:03.066Z,19.00
2019-06-02T05:20:22.179Z,19.10
2019-06-02T05:22:52.848Z,19.20
2019-06-02T05:25:22.280Z,19.30
2019-06-02T05:27:52.926Z,19.30
2019-06-02T05:30:22.363Z,19.40
2019-06-02T05:32:52.569Z,19.50
2019-06-02T05:35:21.970Z,19.60
2019-06-02T05:37:51.193Z,19.60
2019-06-02T05:40:20.434Z,19.70
2019-06-02T05:42:50.123Z,19.80
2019-06-02T05:45:19.470Z,19.90
2019-06-02T05:47:49.900Z,20.00
2019-06-02T05:50:19.821Z,20.10
2019-06-02T05:52:49.027Z,20.10
2019-06-02T05:55:18.532Z,20.20
2019-06-02T05:57:49.132Z,20.30
2019-06-02T06:00:18.747Z,20.30
2019-06-02T06:02:49.126Z,20.50
2019-06-02T06:05:19.214Z,20.50
2019-06-02T06:07:48.434Z,20.60
2019-06-02T06:10:18.579Z,20.70
2019-06-02T06:12:48.833Z,20.80
2019-06-02T06:15:18.321Z,20.90
2019-06-02T06:17:47.555Z,21.00
2019-06-02T06:20:17.390Z,21.00
2019-06-02T06:22:46.614Z,21.10
2019-06-02T06:25:15.912Z,21.10
2019-06-02T06:27:45.187Z,21.10
2019-06-02T06:30:15.890Z,21.20
2019-06-02T06:32:45.110Z,21.20
2019-06-02T06:35:14.384Z,21.20
2019-06-02T06:37:43.619Z,21.30
2019-06-02T06:40:12.920Z,21.30
2019-06-02T06:42:42.182Z,21.30
2019-06-02T06:45:11.478Z,21.40
2019-06-02T06:47:40.688Z,21.40
2019-06-02T06:50:11.143Z,21.50
2019-06-02T06:52:40.354Z,21.50
2019-06-02T06:55:11.410Z,21.60
2019-06-02T06:57:40.908Z,21.60
2019-06-02T07:00:10.560Z,21.70
2019-06-02T07:02:39.763Z,21.70
2019-06-02T07:05:11.018Z,21.80
2019-06-02T07:07:40.255Z,21.80
2019-06-02T07:10:09.563Z,21.90
2019-06-02T07:12:38.767Z,22.00
2019-06-02T07:15:08.159Z,22.00
2019-06-02T07:17:37.365Z,22.10
2019-06-02T07:20:07.618Z,22.20
2019-06-02T07:22:36.810Z,22.20
2019-06-02T07:25:08.271Z,22.30
2019-06-02T07:27:37.570Z,22.40
2019-06-02T07:30:07.922Z,22.50
2019-06-02T07:32:37.154Z,22.60
2019-06-02T07:35:08.179Z,22.70
2019-06-02T07:37:37.693Z,22.80
2019-06-02T07:40:08.739Z,22.90
2019-06-02T07:42:38.198Z,22.90
2019-06-02T07:45:09.222Z,23.00
2019-06-02T07:47:38.664Z,23.10
2019-06-02T07:50:09.656Z,23.10
2019-06-02T07:52:39.104Z,23.20
2019-06-02T07:55:10.214Z,23.30
2019-06-02T07:57:39.581Z,23.30
2019-06-02T08:00:18.990Z,23.40
2019-06-02T08:02:48.283Z,23.50
2019-06-02T08:05:17.863Z,23.60
2019-06-02T08:07:47.118Z,23.70
2019-06-02T08:10:16.499Z,23.80
2019-06-02T08:12:45.718Z,23.80
2019-06-02T08:15:14.924Z,23.90
2019-06-02T08:20:20.369Z,24.30
2019-06-02T08:22:45.731Z,24.30
2019-06-02T08:25:15.872Z,24.30
2019-06-02T08:27:45.166Z,24.40
2019-06-02T08:30:14.534Z,24.50
2019-06-02T08:32:43.771Z,24.60
2019-06-02T08:35:13.688Z,24.60
2019-06-02T08:37:42.914Z,24.60
2019-06-02T08:40:13.053Z,24.60
2019-06-02T08:42:42.851Z,24.70
2019-06-02T08:45:13.703Z,24.80
2019-06-02T08:47:43.300Z,24.90
2019-06-02T08:50:18.671Z,25.00
2019-06-02T08:52:43.519Z,25.00
2019-06-02T08:55:12.865Z,25.10
2019-06-02T08:57:42.091Z,25.30
2019-06-02T09:00:13.891Z,25.40
2019-06-02T09:02:43.523Z,25.40
2019-06-02T09:05:12.728Z,25.40
2019-06-02T09:07:41.951Z,25.50
2019-06-02T09:10:13.146Z,25.50
2019-06-02T09:12:43.730Z,25.50
2019-06-02T09:15:13.388Z,25.60
2019-06-02T09:17:42.874Z,25.70
2019-06-02T09:20:27.712Z,25.70
2019-06-02T09:22:43.464Z,25.70
2019-06-02T09:25:13.370Z,25.70
2019-06-02T09:27:42.866Z,25.80
2019-06-02T09:30:14.211Z,25.90
2019-06-02T09:32:44.093Z,25.90
2019-06-02T09:35:19.310Z,25.90
2019-06-02T09:37:44.720Z,26.00
2019-06-02T09:40:15.401Z,26.00
2019-06-02T09:42:45.269Z,26.10
2019-06-02T09:45:15.899Z,26.10
2019-06-02T09:47:45.290Z,26.20
2019-06-02T09:50:15.652Z,26.30
2019-06-02T09:52:54.931Z,26.30
2019-06-02T09:55:18.039Z,26.30
2019-06-02T09:57:47.211Z,26.40
2019-06-02T10:00:21.868Z,26.40
2019-06-02T10:02:47.936Z,26.40
2019-06-02T10:05:17.211Z,26.40
2019-06-02T10:10:17.007Z,26.50
2019-06-02T10:12:46.307Z,26.60
2019-06-02T10:15:16.565Z,26.70
2019-06-02T10:17:46.151Z,26.80
2019-06-02T10:20:16.751Z,26.90
2019-06-02T10:22:46.204Z,27.00
2019-06-02T10:25:16.864Z,27.00
2019-06-02T10:27:47.246Z,27.10
2019-06-02T10:30:18.215Z,27.10
2019-06-02T10:32:47.443Z,27.20
2019-06-02T10:35:18.669Z,27.30
2019-06-02T10:37:47.915Z,27.30
2019-06-02T10:40:20.391Z,27.40
2019-06-02T10:42:49.609Z,27.50
2019-06-02T10:45:22.711Z,27.50
2019-06-02T10:47:49.911Z,27.50
2019-06-02T10:50:27.995Z,27.60
2019-06-02T10:52:50.222Z,27.70
2019-06-02T10:55:19.614Z,27.70
2019-06-02T10:57:48.831Z,27.70
2019-06-02T11:00:19.875Z,27.80
2019-06-02T11:02:49.235Z,27.80
2019-06-02T11:05:22.088Z,27.90
2019-06-02T11:07:50.811Z,27.90
2019-06-02T11:10:20.035Z,28.00
2019-06-02T11:12:49.283Z,28.00
2019-06-02T11:15:20.788Z,28.10
2019-06-02T11:17:52.509Z,28.10
2019-06-02T11:20:22.606Z,28.10
2019-06-02T11:22:53.142Z,28.20
2019-06-02T11:25:22.381Z,28.20
2019-06-02T11:27:51.603Z,28.20
2019-06-02T11:30:23.747Z,28.30
2019-06-02T11:32:53.022Z,28.40
2019-06-02T11:35:22.431Z,28.40
2019-06-02T11:37:51.824Z,28.50
2019-06-02T11:40:22.877Z,28.50
2019-06-02T11:42:52.511Z,28.50
2019-06-02T11:45:23.093Z,28.60
2019-06-02T11:47:53.684Z,28.60
2019-06-02T11:50:23.397Z,28.60
2019-06-02T11:52:52.983Z,28.60
2019-06-02T11:55:22.931Z,28.70
2019-06-02T11:57:52.513Z,28.70
2019-06-02T12:00:25.192Z,28.70
2019-06-02T12:02:54.395Z,28.70
2019-06-02T12:05:23.683Z,28.70
2019-06-02T12:07:54.126Z,28.70
2019-06-02T12:10:25.219Z,28.70
2019-06-02T12:12:54.694Z,28.80
2019-06-02T12:15:25.141Z,28.80
2019-06-02T12:17:54.361Z,28.80
2019-06-02T12:20:23.771Z,28.90
2019-06-02T12:22:53.111Z,29.00
2019-06-02T12:25:23.753Z,29.10
2019-06-02T12:27:53.227Z,29.10
2019-06-02T12:30:26.116Z,29.10
2019-06-02T12:32:53.745Z,29.10
2019-06-02T12:35:24.263Z,29.20
2019-06-02T12:37:53.608Z,29.20
2019-06-02T12:40:24.435Z,29.20
2019-06-02T12:42:54.845Z,29.20
2019-06-02T12:45:25.139Z,29.10
2019-06-02T12:47:54.438Z,29.10
2019-06-02T12:50:25.165Z,29.10
2019-06-02T12:52:54.597Z,29.10
2019-06-02T12:55:23.788Z,29.10
2019-06-02T12:57:53.007Z,29.20
2019-06-02T13:00:28.732Z,29.20
2019-06-02T13:02:54.059Z,29.20
2019-06-02T13:05:23.730Z,29.20
2019-06-02T13:07:53.097Z,29.20
2019-06-02T13:10:22.552Z,29.30
2019-06-02T13:12:52.826Z,29.40
2019-06-02T13:15:22.432Z,29.40
2019-06-02T13:17:51.636Z,29.40
2019-06-02T13:20:23.270Z,29.50
2019-06-02T13:23:14.617Z,29.50
2019-06-02T13:25:25.035Z,29.50
2019-06-02T13:27:54.652Z,29.50
2019-06-02T13:30:24.672Z,29.50
2019-06-02T13:32:54.046Z,29.50
2019-06-02T13:35:23.272Z,29.50
2019-06-02T13:37:52.490Z,29.40
2019-06-02T13:40:23.021Z,29.40
2019-06-02T13:42:52.478Z,29.40
2019-06-02T13:45:23.702Z,29.40
2019-06-02T13:47:52.982Z,29.40
2019-06-02T13:50:22.181Z,29.40
2019-06-02T13:53:04.937Z,29.50
2019-06-02T13:55:23.499Z,29.50
2019-06-02T13:57:52.892Z,29.60
2019-06-02T14:00:28.408Z,29.60
2019-06-02T14:02:56.203Z,29.60
2019-06-02T14:05:26.023Z,29.60
2019-06-02T14:07:55.545Z,29.60
2019-06-02T14:12:57.497Z,29.60
2019-06-02T14:15:26.719Z,29.70
2019-06-02T14:17:55.919Z,29.70
2019-06-02T14:20:25.158Z,29.80
2019-06-02T14:22:54.351Z,29.80
2019-06-02T14:25:24.870Z,29.90
2019-06-02T14:27:54.179Z,29.90
2019-06-02T14:30:23.410Z,30.00
2019-06-02T14:32:53.281Z,30.00
2019-06-02T14:35:22.825Z,30.10
2019-06-02T14:37:52.022Z,30.10
2019-06-02T14:40:23.558Z,30.20
2019-06-02T14:42:52.964Z,30.20
2019-06-02T14:45:22.484Z,30.40
2019-06-02T14:47:53.386Z,30.50
2019-06-02T14:50:24.030Z,30.60
2019-06-02T14:52:53.359Z,30.70
2019-06-02T14:55:24.691Z,30.80
2019-06-02T14:57:54.098Z,30.90
2019-06-02T15:00:24.605Z,31.00
2019-06-02T15:02:55.348Z,31.10
2019-06-02T15:05:26.530Z,31.10
2019-06-02T15:07:55.759Z,31.20
2019-06-02T15:10:25.345Z,31.20
2019-06-02T15:12:54.894Z,31.30
2019-06-02T15:15:24.589Z,31.30
2019-06-02T15:17:55.018Z,31.40
2019-06-02T15:20:25.026Z,31.40
2019-06-02T15:22:54.495Z,31.50
2019-06-02T15:25:23.723Z,31.50
2019-06-02T15:27:52.965Z,31.60
2019-06-02T15:30:22.195Z,31.70
2019-06-02T15:32:51.495Z,31.70
2019-06-02T15:35:20.727Z,31.70
2019-06-02T15:37:49.950Z,31.80
2019-06-02T15:40:20.559Z,31.80
2019-06-02T15:42:49.855Z,31.90
2019-06-02T15:45:20.293Z,31.90
2019-06-02T15:47:49.518Z,31.90
2019-06-02T15:50:19.087Z,32.00
2019-06-02T15:52:48.310Z,32.00
2019-06-02T15:55:17.539Z,32.00
2019-06-02T15:57:46.734Z,32.10
2019-06-02T16:00:20.124Z,32.10
2019-06-02T16:02:50.070Z,32.20
2019-06-02T16:05:19.311Z,32.30
2019-06-02T16:07:48.509Z,32.30
2019-06-02T16:10:17.879Z,32.40
2019-06-02T16:12:47.110Z,32.40
2019-06-02T16:15:16.316Z,32.50
2019-06-02T16:17:45.526Z,32.70
2019-06-02T16:20:15.096Z,32.80
2019-06-02T16:22:44.310Z,33.50
2019-06-02T16:25:14.020Z,33.90
2019-06-02T16:27:43.251Z,34.30
2019-06-02T16:30:13.113Z,35.20
2019-06-02T16:32:42.618Z,37.60
2019-06-02T16:35:12.079Z,37.80
2019-06-02T16:37:41.990Z,39.00
2019-06-02T16:42:40.733Z,41.30
2019-06-02T16:45:10.460Z,41.90
2019-06-02T16:47:41.040Z,42.00
2019-06-02T16:50:10.699Z,42.60
2019-06-02T16:52:42.346Z,43.20
2019-06-02T16:55:11.731Z,43.20
2019-06-02T16:57:41.892Z,44.00
2019-06-02T17:00:11.670Z,44.00
2019-06-02T17:07:39.792Z,45.20
2019-06-02T17:10:09.147Z,45.30
2019-06-02T17:12:38.372Z,45.20
2019-06-02T17:15:07.959Z,45.10
2019-06-02T17:17:54.013Z,45.20
2019-06-02T17:20:08.598Z,45.40
2019-06-02T17:22:38.979Z,45.40
2019-06-02T17:25:13.879Z,45.40
2019-06-02T17:27:44.187Z,45.40
2019-06-02T17:30:11.751Z,45.10
2019-06-02T17:32:42.051Z,44.90
2019-06-02T18:07:31.953Z,39.90
2019-06-02T18:10:01.169Z,39.40
2019-06-02T18:12:30.446Z,38.60
2019-06-02T18:14:59.682Z,37.90
2019-06-02T18:17:28.871Z,37.20
2019-06-02T18:19:58.102Z,36.50
2019-06-02T18:22:27.304Z,36.00
2019-06-02T18:24:56.522Z,35.40
2019-06-02T18:27:25.736Z,34.90
2019-06-02T18:29:56.599Z,34.40
2019-06-02T18:32:26.048Z,34.00
2019-06-02T18:34:55.271Z,33.60
2019-06-02T18:37:24.475Z,33.30
2019-06-02T18:39:55.265Z,33.00
2019-06-02T18:42:24.551Z,32.60
2019-06-02T18:44:53.804Z,32.40
2019-06-02T18:47:23.023Z,32.10
2019-06-02T18:49:52.247Z,31.90
2019-06-02T18:52:21.498Z,31.70
2019-06-02T18:54:51.469Z,31.50
2019-06-02T18:57:22.009Z,31.30
2019-06-02T18:59:51.686Z,31.10
2019-06-02T19:02:21.267Z,31.00
2019-06-02T19:04:51.844Z,30.80
2019-06-02T19:07:21.267Z,30.70
2019-06-02T19:09:50.554Z,30.50
2019-06-02T19:12:20.947Z,30.40
2019-06-02T19:14:50.891Z,30.20
2019-06-02T19:17:20.397Z,30.10
2019-06-02T19:19:49.638Z,29.90
2019-06-02T19:22:23.008Z,29.70
2019-06-02T19:24:49.970Z,29.50
2019-06-02T19:27:19.177Z,29.30
2019-06-02T19:29:48.482Z,29.10
2019-06-02T19:32:17.802Z,29.00
2019-06-02T19:34:48.364Z,28.80
2019-06-02T19:37:17.927Z,28.70
2019-06-02T19:39:47.127Z,28.50
2019-06-02T19:42:16.350Z,28.40
2019-06-02T19:44:45.551Z,28.20
2019-06-02T19:47:14.766Z,28.10
2019-06-02T19:49:44.003Z,27.90
2019-06-02T19:52:13.223Z,27.80
2019-06-02T19:54:47.690Z,27.80
2019-06-02T19:57:16.299Z,27.70
2019-06-02T19:59:45.838Z,27.60
2019-06-02T20:02:16.083Z,27.50
2019-06-02T20:04:45.318Z,27.40
2019-06-02T20:07:14.526Z,27.30
2019-06-02T20:09:43.752Z,27.20
2019-06-02T20:12:20.313Z,27.10
2019-06-02T20:14:43.925Z,26.90
2019-06-02T20:17:13.399Z,26.80
2019-06-02T20:19:42.900Z,26.70
2019-06-02T20:22:12.143Z,26.70
2019-06-02T20:24:41.344Z,26.60
2019-06-02T20:27:12.706Z,26.50
2019-06-02T20:29:41.760Z,26.40
2019-06-02T20:32:11.258Z,26.30
2019-06-02T20:34:40.791Z,26.10
2019-06-02T20:37:10.039Z,25.90
2019-06-02T20:39:39.241Z,25.80
2019-06-02T20:42:08.459Z,25.70
2019-06-02T20:44:37.663Z,25.60
2019-06-02T20:47:14.716Z,25.50
2019-06-02T20:49:37.814Z,25.40
2019-06-02T20:52:07.047Z,25.40
2019-06-02T20:54:36.256Z,25.30
2019-06-02T20:57:22.160Z,25.20
2019-06-02T20:59:36.423Z,25.10
2019-06-02T21:02:06.890Z,24.90
2019-06-02T21:04:36.236Z,24.80
2019-06-02T21:07:06.621Z,24.60
2019-06-02T21:09:36.382Z,24.50
2019-06-02T21:12:05.840Z,24.40
2019-06-02T21:14:35.047Z,24.40
2019-06-02T21:17:04.528Z,24.30
2019-06-02T21:19:34.042Z,24.20
2019-06-02T21:22:04.550Z,24.20
2019-06-02T21:24:34.287Z,24.10
2019-06-02T21:27:03.521Z,24.00
2019-06-02T21:29:32.735Z,23.90
2019-06-02T21:32:03.178Z,23.80
2019-06-02T21:34:32.714Z,23.80
2019-06-02T21:37:03.341Z,23.80
2019-06-02T21:39:33.716Z,23.70
2019-06-02T21:42:03.614Z,23.70
2019-06-02T21:44:32.994Z,23.70
2019-06-02T21:47:02.364Z,23.60
2019-06-02T21:49:31.742Z,23.50
2019-06-02T21:52:02.550Z,23.50
2019-06-02T21:54:31.982Z,23.40
2019-06-02T21:57:02.640Z,23.30
2019-06-02T21:59:33.128Z,23.20
2019-06-02T22:02:03.254Z,23.20
2019-06-02T22:04:32.619Z,23.20
2019-06-02T22:07:04.875Z,23.20
2019-06-02T22:09:34.800Z,23.20
2019-06-02T22:12:06.218Z,23.20
2019-06-02T22:14:35.118Z,23.20
2019-06-02T22:17:04.326Z,23.20
2019-06-02T22:19:33.550Z,23.20
2019-06-02T22:22:04.208Z,23.20
2019-06-02T22:24:33.558Z,23.20
2019-06-02T22:27:03.354Z,23.20
2019-06-02T22:29:33.630Z,23.20
2019-06-02T22:32:03.776Z,23.20
2019-06-02T22:34:33.066Z,23.20
2019-06-02T22:37:02.275Z,23.20
2019-06-02T22:39:32.566Z,23.20
2019-06-02T22:42:02.095Z,23.10
2019-06-02T22:44:31.298Z,23.10
2019-06-02T22:47:00.900Z,22.90
2019-06-02T22:49:31.252Z,22.90
2019-06-02T22:52:01.250Z,22.80
2019-06-02T23:21:48.611Z,22.20
2019-06-02T23:24:24.554Z,22.20
2019-06-02T23:26:48.761Z,22.20
2019-06-02T23:29:17.961Z,22.20
2019-06-02T23:31:47.187Z,22.20
2019-06-02T23:34:17.479Z,22.20
2019-06-02T23:36:46.915Z,22.10
2019-06-02T23:39:16.118Z,22.10
2019-06-02T23:41:45.335Z,22.10
2019-06-02T23:44:14.772Z,22.10
2019-06-02T23:46:44.138Z,22.10
2019-06-02T23:49:14.951Z,22.10
2019-06-02T23:51:44.247Z,22.00
2019-06-02T23:54:13.445Z,22.00
2019-06-02T23:56:42.848Z,21.90
2019-06-02T23:59:14.990Z,21.90
